Main page
METAR-TAF:

METAR-TAF

Airports :

Tangier, Morocco

Tangier Ibn Battouta Airport

latitude: 35-44N, longitude: 005-54W, elevation: 19 m

Current weather observation

The report was made 22 minutes ago, at 03:30 UTC
Wind 1 kt from the Northeast
Temperature 15°C
Humidity 77%
Pressure 1019 hPa
Visibility: 8000 m
Few clouds at a height of 1000 ft
Scattered clouds at a height of 1600 ft

METAR: GMTT 200330Z 05001KT 8000 R28///// FEW010 SCT016 15/11 Q1019 NOSIG

Time: 04:52 (03:52 UTC)

Forecast

The report was made 4 hours and 52 minutes ago, at 23:00 UTC
Forecast valid from 20 at 00 UTC to 21 at 06 UTC
Wind 5 kt from the East/Southeast
Visibility: 8000 m
Few clouds at a height of 1600 ft
Temporary
from 20 at 06 UTC to 20 at 14 UTC
Wind 10 kt from the West
Becoming
from 20 at 12 UTC to 20 at 15 UTC
Wind 16 kt from the East

TAF: GMTT 192300Z 2000/2106 12005KT 8000 FEW016 TEMPO 2006/2014 28010KT BECMG 2012/2015 10016KT

Weather observations and forecasts of more than 4000 airports (METAR and TAF reports).

The available stations are represented by yellow and red dots on the map.

Hover mouse over dot to see the name of the station.

Then click to see weather observations and forecasts.

To change the map : click on the green buttons with a black cross to zoom in, on the green button with a dash to zoom out, or on the green arrows for adjacent maps.


METAR-TAF: